sensor_id;sensor_type;location;lat;lon;timestamp;temperature;humidity
22430;DHT22;11382;48.086;11.632;2023-02-15T00:00:15;-0.60;99.90
22430;DHT22;11382;48.086;11.632;2023-02-15T00:02:43;-0.50;99.90
22430;DHT22;11382;48.086;11.632;2023-02-15T00:05:11;-0.40;99.90
22430;DHT22;11382;48.086;11.632;2023-02-15T00:07:39;-0.60;99.90
22430;DHT22;11382;48.086;11.632;2023-02-15T00:10:07;-0.70;99.90
22430;DHT22;11382;48.086;11.632;2023-02-15T00:12:35;-0.70;99.90
22430;DHT22;11382;48.086;11.632;2023-02-15T00:15:05;-0.70;99.90
22430;DHT22;11382;48.086;11.632;2023-02-15T00:17:33;-0.70;99.90
22430;DHT22;11382;48.086;11.632;2023-02-15T00:20:01;-0.70;99.90
22430;DHT22;11382;48.086;11.632;2023-02-15T00:22:29;-0.60;99.90
22430;DHT22;11382;48.086;11.632;2023-02-15T00:24:57;-0.70;99.90
22430;DHT22;11382;48.086;11.632;2023-02-15T00:27:25;-0.80;99.90
22430;DHT22;11382;48.086;11.632;2023-02-15T00:29:53;-0.80;99.90
22430;DHT22;11382;48.086;11.632;2023-02-15T00:32:22;-0.70;99.90
22430;DHT22;11382;48.086;11.632;2023-02-15T00:34:50;-0.80;99.90
22430;DHT22;11382;48.086;11.632;2023-02-15T00:37:18;-0.70;99.90
22430;DHT22;11382;48.086;11.632;2023-02-15T00:39:46;-0.80;99.90
22430;DHT22;11382;48.086;11.632;2023-02-15T00:42:16;-0.80;99.90
22430;DHT22;11382;48.086;11.632;2023-02-15T00:44:44;-0.80;99.90
22430;DHT22;11382;48.086;11.632;2023-02-15T00:47:12;-0.80;99.90
22430;DHT22;11382;48.086;11.632;2023-02-15T00:49:42;-0.90;99.90
22430;DHT22;11382;48.086;11.632;2023-02-15T00:52:11;-0.80;99.90
22430;DHT22;11382;48.086;11.632;2023-02-15T00:54:41;-0.90;99.90
22430;DHT22;11382;48.086;11.632;2023-02-15T00:57:09;-1.00;99.90
22430;DHT22;11382;48.086;11.632;2023-02-15T00:59:37;-1.00;99.90
22430;DHT22;11382;48.086;11.632;2023-02-15T01:02:05;-1.10;99.90
22430;DHT22;11382;48.086;11.632;2023-02-15T01:04:33;-1.20;99.90
22430;DHT22;11382;48.086;11.632;2023-02-15T01:07:03;-1.00;99.90
22430;DHT22;11382;48.086;11.632;2023-02-15T01:09:32;-1.10;99.90
22430;DHT22;11382;48.086;11.632;2023-02-15T01:12:02;-1.20;99.90
22430;DHT22;11382;48.086;11.632;2023-02-15T01:14:30;-1.10;99.90
22430;DHT22;11382;48.086;11.632;2023-02-15T01:16:58;-1.00;99.90
22430;DHT22;11382;48.086;11.632;2023-02-15T01:19:26;-1.00;99.90
22430;DHT22;11382;48.086;11.632;2023-02-15T01:21:54;-0.90;99.90
22430;DHT22;11382;48.086;11.632;2023-02-15T01:24:23;-0.90;99.90
22430;DHT22;11382;48.086;11.632;2023-02-15T01:26:51;-1.00;99.90
22430;DHT22;11382;48.086;11.632;2023-02-15T01:29:19;-1.10;99.90
22430;DHT22;11382;48.086;11.632;2023-02-15T01:31:47;-1.10;99.90
22430;DHT22;11382;48.086;11.632;2023-02-15T01:34:16;-1.10;99.90
22430;DHT22;11382;48.086;11.632;2023-02-15T01:36:44;-1.10;99.90
22430;DHT22;11382;48.086;11.632;2023-02-15T01:39:14;-1.10;99.90
22430;DHT22;11382;48.086;11.632;2023-02-15T01:41:43;-1.10;99.90
22430;DHT22;11382;48.086;11.632;2023-02-15T01:44:51;-1.40;99.90
22430;DHT22;11382;48.086;11.632;2023-02-15T01:47:22;-1.40;99.90
22430;DHT22;11382;48.086;11.632;2023-02-15T01:50:01;-1.50;99.90
22430;DHT22;11382;48.086;11.632;2023-02-15T01:52:30;-1.50;99.90
22430;DHT22;11382;48.086;11.632;2023-02-15T01:54:58;-1.30;99.90
22430;DHT22;11382;48.086;11.632;2023-02-15T01:57:30;-1.20;99.90
22430;DHT22;11382;48.086;11.632;2023-02-15T02:00:01;-1.10;99.90
22430;DHT22;11382;48.086;11.632;2023-02-15T02:02:38;-1.30;99.90
22430;DHT22;11382;48.086;11.632;2023-02-15T02:05:07;-1.60;99.90
22430;DHT22;11382;48.086;11.632;2023-02-15T02:07:38;-1.50;99.90
22430;DHT22;11382;48.086;11.632;2023-02-15T02:10:11;-1.60;99.90
22430;DHT22;11382;48.086;11.632;2023-02-15T02:12:42;-1.50;99.90
22430;DHT22;11382;48.086;11.632;2023-02-15T02:15:12;-1.30;99.90
22430;DHT22;11382;48.086;11.632;2023-02-15T02:17:50;-1.40;99.90
22430;DHT22;11382;48.086;11.632;2023-02-15T02:20:38;-1.30;99.90
22430;DHT22;11382;48.086;11.632;2023-02-15T02:23:27;-1.30;99.90
22430;DHT22;11382;48.086;11.632;2023-02-15T02:34:39;-1.30;99.90
22430;DHT22;11382;48.086;11.632;2023-02-15T02:37:19;-1.30;99.90
22430;DHT22;11382;48.086;11.632;2023-02-15T02:39:53;-1.20;99.90
22430;DHT22;11382;48.086;11.632;2023-02-15T02:42:28;-1.20;99.90
22430;DHT22;11382;48.086;11.632;2023-02-15T02:45:03;-1.30;99.90
22430;DHT22;11382;48.086;11.632;2023-02-15T02:47:36;-1.10;99.90
22430;DHT22;11382;48.086;11.632;2023-02-15T02:50:09;-1.10;99.90
22430;DHT22;11382;48.086;11.632;2023-02-15T02:52:39;-1.20;99.90
22430;DHT22;11382;48.086;11.632;2023-02-15T02:55:11;-1.20;99.90
22430;DHT22;11382;48.086;11.632;2023-02-15T02:57:43;-1.00;99.90
22430;DHT22;11382;48.086;11.632;2023-02-15T03:00:14;-1.00;99.90
22430;DHT22;11382;48.086;11.632;2023-02-15T03:02:45;-1.10;99.90
22430;DHT22;11382;48.086;11.632;2023-02-15T03:05:20;-1.10;99.90
22430;DHT22;11382;48.086;11.632;2023-02-15T03:07:50;-1.00;99.90
22430;DHT22;11382;48.086;11.632;2023-02-15T03:10:22;-1.10;99.90
22430;DHT22;11382;48.086;11.632;2023-02-15T03:12:52;-1.30;99.90
22430;DHT22;11382;48.086;11.632;2023-02-15T03:15:21;-1.20;99.90
22430;DHT22;11382;48.086;11.632;2023-02-15T03:17:56;-1.20;99.90
22430;DHT22;11382;48.086;11.632;2023-02-15T03:20:29;-1.30;99.90
22430;DHT22;11382;48.086;11.632;2023-02-15T03:23:02;-1.40;99.90
22430;DHT22;11382;48.086;11.632;2023-02-15T03:25:34;-1.40;99.90
22430;DHT22;11382;48.086;11.632;2023-02-15T03:28:07;-1.30;99.90
22430;DHT22;11382;48.086;11.632;2023-02-15T03:30:38;-1.20;99.90
22430;DHT22;11382;48.086;11.632;2023-02-15T03:33:08;-1.20;99.90
22430;DHT22;11382;48.086;11.632;2023-02-15T03:35:42;-1.30;99.90
22430;DHT22;11382;48.086;11.632;2023-02-15T03:38:17;-1.40;99.90
22430;DHT22;11382;48.086;11.632;2023-02-15T03:40:47;-1.40;99.90
22430;DHT22;11382;48.086;11.632;2023-02-15T03:43:40;-1.30;99.90
22430;DHT22;11382;48.086;11.632;2023-02-15T03:46:13;-1.30;99.90
22430;DHT22;11382;48.086;11.632;2023-02-15T03:48:47;-1.30;99.90
22430;DHT22;11382;48.086;11.632;2023-02-15T03:51:21;-1.40;99.90
22430;DHT22;11382;48.086;11.632;2023-02-15T03:54:04;-1.40;99.90
22430;DHT22;11382;48.086;11.632;2023-02-15T03:56:34;-1.40;99.90
22430;DHT22;11382;48.086;11.632;2023-02-15T03:59:03;-1.30;99.90
22430;DHT22;11382;48.086;11.632;2023-02-15T04:01:58;-1.40;99.90
22430;DHT22;11382;48.086;11.632;2023-02-15T04:04:33;-1.50;99.90
22430;DHT22;11382;48.086;11.632;2023-02-15T04:07:05;-1.50;99.90
22430;DHT22;11382;48.086;11.632;2023-02-15T04:09:33;-1.50;99.90
22430;DHT22;11382;48.086;11.632;2023-02-15T04:12:19;-1.70;99.90
22430;DHT22;11382;48.086;11.632;2023-02-15T04:14:48;-1.70;99.90
22430;DHT22;11382;48.086;11.632;2023-02-15T04:17:35;-1.70;99.90
22430;DHT22;11382;48.086;11.632;2023-02-15T04:20:03;-1.60;99.90
22430;DHT22;11382;48.086;11.632;2023-02-15T04:22:51;-1.60;99.90
22430;DHT22;11382;48.086;11.632;2023-02-15T04:25:36;-1.60;99.90
22430;DHT22;11382;48.086;11.632;2023-02-15T04:28:04;-1.70;99.90
22430;DHT22;11382;48.086;11.632;2023-02-15T04:30:34;-1.60;99.90
22430;DHT22;11382;48.086;11.632;2023-02-15T04:33:02;-1.70;99.90
22430;DHT22;11382;48.086;11.632;2023-02-15T04:35:30;-1.70;99.90
22430;DHT22;11382;48.086;11.632;2023-02-15T04:38:00;-1.60;99.90
22430;DHT22;11382;48.086;11.632;2023-02-15T04:40:28;-1.60;99.90
22430;DHT22;11382;48.086;11.632;2023-02-15T04:42:56;-1.50;99.90
22430;DHT22;11382;48.086;11.632;2023-02-15T04:45:24;-1.50;99.90
22430;DHT22;11382;48.086;11.632;2023-02-15T04:47:53;-1.40;99.90
22430;DHT22;11382;48.086;11.632;2023-02-15T04:50:22;-1.40;99.90
22430;DHT22;11382;48.086;11.632;2023-02-15T04:52:50;-1.30;99.90
22430;DHT22;11382;48.086;11.632;2023-02-15T04:55:19;-1.30;99.90
22430;DHT22;11382;48.086;11.632;2023-02-15T04:57:47;-1.30;99.90
22430;DHT22;11382;48.086;11.632;2023-02-15T05:00:15;-1.30;99.90
22430;DHT22;11382;48.086;11.632;2023-02-15T05:02:43;-1.30;99.90
22430;DHT22;11382;48.086;11.632;2023-02-15T05:05:11;-1.30;99.90
22430;DHT22;11382;48.086;11.632;2023-02-15T05:07:41;-1.40;99.90
22430;DHT22;11382;48.086;11.632;2023-02-15T05:10:09;-1.50;99.90
22430;DHT22;11382;48.086;11.632;2023-02-15T05:12:39;-1.50;99.90
22430;DHT22;11382;48.086;11.632;2023-02-15T05:15:08;-1.60;99.90
22430;DHT22;11382;48.086;11.632;2023-02-15T05:17:36;-1.60;99.90
22430;DHT22;11382;48.086;11.632;2023-02-15T05:20:05;-1.60;99.90
22430;DHT22;11382;48.086;11.632;2023-02-15T05:22:35;-1.60;99.90
22430;DHT22;11382;48.086;11.632;2023-02-15T05:25:03;-1.50;99.90
22430;DHT22;11382;48.086;11.632;2023-02-15T05:27:50;-1.70;99.90
22430;DHT22;11382;48.086;11.632;2023-02-15T05:30:36;-1.70;99.90
22430;DHT22;11382;48.086;11.632;2023-02-15T05:33:04;-1.80;99.90
22430;DHT22;11382;48.086;11.632;2023-02-15T05:35:32;-1.80;99.90
22430;DHT22;11382;48.086;11.632;2023-02-15T05:38:00;-1.80;99.90
22430;DHT22;11382;48.086;11.632;2023-02-15T05:40:28;-1.70;99.90
22430;DHT22;11382;48.086;11.632;2023-02-15T05:42:58;-1.70;99.90
22430;DHT22;11382;48.086;11.632;2023-02-15T05:45:26;-1.70;99.90
22430;DHT22;11382;48.086;11.632;2023-02-15T05:47:54;-1.70;99.90
22430;DHT22;11382;48.086;11.632;2023-02-15T05:50:25;-1.70;99.90
22430;DHT22;11382;48.086;11.632;2023-02-15T05:52:53;-1.70;99.90
22430;DHT22;11382;48.086;11.632;2023-02-15T05:55:21;-1.70;99.90
22430;DHT22;11382;48.086;11.632;2023-02-15T05:57:49;-1.60;99.90
22430;DHT22;11382;48.086;11.632;2023-02-15T06:00:19;-1.70;99.90
22430;DHT22;11382;48.086;11.632;2023-02-15T06:02:47;-1.70;99.90
22430;DHT22;11382;48.086;11.632;2023-02-15T06:05:15;-1.90;99.90
22430;DHT22;11382;48.086;11.632;2023-02-15T06:07:43;-2.00;99.90
22430;DHT22;11382;48.086;11.632;2023-02-15T06:10:11;-2.10;99.90
22430;DHT22;11382;48.086;11.632;2023-02-15T06:12:39;-2.10;99.90
22430;DHT22;11382;48.086;11.632;2023-02-15T06:15:08;-2.00;99.90
22430;DHT22;11382;48.086;11.632;2023-02-15T06:17:37;-2.10;99.90
22430;DHT22;11382;48.086;11.632;2023-02-15T06:20:09;-1.90;99.90
22430;DHT22;11382;48.086;11.632;2023-02-15T06:22:37;-2.00;99.90
22430;DHT22;11382;48.086;11.632;2023-02-15T06:25:05;-1.90;99.90
22430;DHT22;11382;48.086;11.632;2023-02-15T06:27:36;-2.00;99.90
22430;DHT22;11382;48.086;11.632;2023-02-15T06:30:05;-2.00;99.90
22430;DHT22;11382;48.086;11.632;2023-02-15T06:32:34;-2.10;99.90
22430;DHT22;11382;48.086;11.632;2023-02-15T06:35:03;-2.30;99.90
22430;DHT22;11382;48.086;11.632;2023-02-15T06:37:32;-2.20;99.90
22430;DHT22;11382;48.086;11.632;2023-02-15T06:40:00;-2.10;99.90
22430;DHT22;11382;48.086;11.632;2023-02-15T06:42:30;-1.90;99.90
22430;DHT22;11382;48.086;11.632;2023-02-15T06:44:58;-2.10;99.90
22430;DHT22;11382;48.086;11.632;2023-02-15T06:47:27;-2.10;99.90
22430;DHT22;11382;48.086;11.632;2023-02-15T06:49:55;-1.90;99.90
22430;DHT22;11382;48.086;11.632;2023-02-15T06:52:25;-1.80;99.90
22430;DHT22;11382;48.086;11.632;2023-02-15T06:54:53;-1.70;99.90
22430;DHT22;11382;48.086;11.632;2023-02-15T06:57:22;-1.50;99.90
22430;DHT22;11382;48.086;11.632;2023-02-15T06:59:50;-1.50;99.90
22430;DHT22;11382;48.086;11.632;2023-02-15T07:02:19;-1.80;99.90
22430;DHT22;11382;48.086;11.632;2023-02-15T07:04:47;-1.90;99.90
22430;DHT22;11382;48.086;11.632;2023-02-15T07:07:15;-1.80;99.90
22430;DHT22;11382;48.086;11.632;2023-02-15T07:09:45;-1.70;99.90
22430;DHT22;11382;48.086;11.632;2023-02-15T07:12:13;-1.70;99.90
22430;DHT22;11382;48.086;11.632;2023-02-15T07:14:58;-1.60;99.90
22430;DHT22;11382;48.086;11.632;2023-02-15T07:17:26;-1.60;99.90
22430;DHT22;11382;48.086;11.632;2023-02-15T07:20:04;-1.50;99.90
22430;DHT22;11382;48.086;11.632;2023-02-15T07:22:35;-1.50;99.90
22430;DHT22;11382;48.086;11.632;2023-02-15T07:25:08;-1.50;99.90
22430;DHT22;11382;48.086;11.632;2023-02-15T07:27:38;-1.50;99.90
22430;DHT22;11382;48.086;11.632;2023-02-15T07:30:08;-1.50;99.90
22430;DHT22;11382;48.086;11.632;2023-02-15T07:32:36;-1.50;99.90
22430;DHT22;11382;48.086;11.632;2023-02-15T07:35:24;-1.40;99.90
22430;DHT22;11382;48.086;11.632;2023-02-15T07:37:54;-1.20;99.90
22430;DHT22;11382;48.086;11.632;2023-02-15T07:40:24;-1.10;99.90
22430;DHT22;11382;48.086;11.632;2023-02-15T07:42:52;-1.20;99.90
22430;DHT22;11382;48.086;11.632;2023-02-15T07:45:21;-1.20;99.90
22430;DHT22;11382;48.086;11.632;2023-02-15T07:47:50;-1.30;99.90
22430;DHT22;11382;48.086;11.632;2023-02-15T07:50:18;-1.30;99.90
22430;DHT22;11382;48.086;11.632;2023-02-15T07:52:46;-1.20;99.90
22430;DHT22;11382;48.086;11.632;2023-02-15T07:55:14;-1.10;99.90
22430;DHT22;11382;48.086;11.632;2023-02-15T07:57:45;-1.10;99.90
22430;DHT22;11382;48.086;11.632;2023-02-15T08:00:16;-1.20;99.90
22430;DHT22;11382;48.086;11.632;2023-02-15T08:02:47;-0.80;99.90
22430;DHT22;11382;48.086;11.632;2023-02-15T08:05:16;-0.70;99.90
22430;DHT22;11382;48.086;11.632;2023-02-15T08:07:45;-0.50;99.90
22430;DHT22;11382;48.086;11.632;2023-02-15T08:10:13;-0.50;99.90
22430;DHT22;11382;48.086;11.632;2023-02-15T08:13:02;-0.40;99.90
22430;DHT22;11382;48.086;11.632;2023-02-15T08:15:30;-0.60;99.90
22430;DHT22;11382;48.086;11.632;2023-02-15T08:17:58;-0.50;99.90
22430;DHT22;11382;48.086;11.632;2023-02-15T08:20:26;-0.30;99.90
22430;DHT22;11382;48.086;11.632;2023-02-15T08:22:54;0.00;99.90
22430;DHT22;11382;48.086;11.632;2023-02-15T08:25:22;0.30;99.90
22430;DHT22;11382;48.086;11.632;2023-02-15T08:27:50;0.20;99.90
22430;DHT22;11382;48.086;11.632;2023-02-15T08:30:22;0.20;99.90
22430;DHT22;11382;48.086;11.632;2023-02-15T08:32:52;0.70;99.90
22430;DHT22;11382;48.086;11.632;2023-02-15T08:35:20;1.10;99.90
22430;DHT22;11382;48.086;11.632;2023-02-15T08:37:48;1.30;99.90
22430;DHT22;11382;48.086;11.632;2023-02-15T08:40:16;1.90;99.90
22430;DHT22;11382;48.086;11.632;2023-02-15T08:42:44;2.20;99.90
22430;DHT22;11382;48.086;11.632;2023-02-15T08:45:11;3.80;99.90
22430;DHT22;11382;48.086;11.632;2023-02-15T08:47:41;5.10;99.90
22430;DHT22;11382;48.086;11.632;2023-02-15T08:50:09;6.40;99.90
22430;DHT22;11382;48.086;11.632;2023-02-15T08:52:37;7.30;99.90
22430;DHT22;11382;48.086;11.632;2023-02-15T08:55:05;8.40;99.90
22430;DHT22;11382;48.086;11.632;2023-02-15T08:57:33;9.60;99.90
22430;DHT22;11382;48.086;11.632;2023-02-15T09:00:02;10.30;99.90
22430;DHT22;11382;48.086;11.632;2023-02-15T09:02:32;10.90;99.90
22430;DHT22;11382;48.086;11.632;2023-02-15T09:05:01;10.80;99.90
22430;DHT22;11382;48.086;11.632;2023-02-15T09:07:32;10.80;99.90
22430;DHT22;11382;48.086;11.632;2023-02-15T09:10:00;10.60;99.90
22430;DHT22;11382;48.086;11.632;2023-02-15T09:12:28;10.40;99.90
22430;DHT22;11382;48.086;11.632;2023-02-15T09:14:56;10.50;99.90
22430;DHT22;11382;48.086;11.632;2023-02-15T09:17:24;10.20;99.90
22430;DHT22;11382;48.086;11.632;2023-02-15T09:19:52;11.10;99.90
22430;DHT22;11382;48.086;11.632;2023-02-15T09:22:21;11.20;99.90
22430;DHT22;11382;48.086;11.632;2023-02-15T09:24:49;11.10;99.90
22430;DHT22;11382;48.086;11.632;2023-02-15T09:27:17;11.60;99.90
22430;DHT22;11382;48.086;11.632;2023-02-15T09:29:45;12.70;99.90
22430;DHT22;11382;48.086;11.632;2023-02-15T09:32:13;13.00;99.80
22430;DHT22;11382;48.086;11.632;2023-02-15T09:34:42;13.50;99.00
22430;DHT22;11382;48.086;11.632;2023-02-15T09:37:10;14.30;96.90
22430;DHT22;11382;48.086;11.632;2023-02-15T09:39:41;14.40;95.20
22430;DHT22;11382;48.086;11.632;2023-02-15T09:42:29;15.70;94.90
22430;DHT22;11382;48.086;11.632;2023-02-15T09:45:13;15.00;92.50
22430;DHT22;11382;48.086;11.632;2023-02-15T09:48:01;14.30;93.30
22430;DHT22;11382;48.086;11.632;2023-02-15T09:50:42;15.80;93.20
22430;DHT22;11382;48.086;11.632;2023-02-15T09:53:35;16.90;91.50
22430;DHT22;11382;48.086;11.632;2023-02-15T09:56:13;16.90;90.60
22430;DHT22;11382;48.086;11.632;2023-02-15T09:58:52;16.90;89.90
22430;DHT22;11382;48.086;11.632;2023-02-15T10:01:32;16.80;89.20
22430;DHT22;11382;48.086;11.632;2023-02-15T10:04:15;16.00;91.00
22430;DHT22;11382;48.086;11.632;2023-02-15T10:06:56;17.20;88.90
22430;DHT22;11382;48.086;11.632;2023-02-15T10:09:52;16.60;90.60
22430;DHT22;11382;48.086;11.632;2023-02-15T10:12:41;17.80;88.20
22430;DHT22;11382;48.086;11.632;2023-02-15T10:15:25;17.50;85.00
22430;DHT22;11382;48.086;11.632;2023-02-15T10:18:11;17.30;83.00
22430;DHT22;11382;48.086;11.632;2023-02-15T10:20:49;17.10;84.50
22430;DHT22;11382;48.086;11.632;2023-02-15T10:23:39;16.30;84.80
22430;DHT22;11382;48.086;11.632;2023-02-15T10:26:16;15.70;88.80
22430;DHT22;11382;48.086;11.632;2023-02-15T10:28:49;17.00;86.90
22430;DHT22;11382;48.086;11.632;2023-02-15T10:31:24;17.60;82.70
22430;DHT22;11382;48.086;11.632;2023-02-15T10:34:08;18.50;81.70
22430;DHT22;11382;48.086;11.632;2023-02-15T10:36:57;19.00;77.80
22430;DHT22;11382;48.086;11.632;2023-02-15T10:39:39;17.30;80.90
22430;DHT22;11382;48.086;11.632;2023-02-15T10:42:13;17.70;82.70
22430;DHT22;11382;48.086;11.632;2023-02-15T10:45:01;19.40;79.30
22430;DHT22;11382;48.086;11.632;2023-02-15T10:47:46;19.80;76.10
22430;DHT22;11382;48.086;11.632;2023-02-15T10:50:26;19.90;76.30
22430;DHT22;11382;48.086;11.632;2023-02-15T10:53:09;20.30;74.10
22430;DHT22;11382;48.086;11.632;2023-02-15T10:55:51;20.80;71.70
22430;DHT22;11382;48.086;11.632;2023-02-15T10:58:30;20.40;68.90
22430;DHT22;11382;48.086;11.632;2023-02-15T11:01:07;19.40;74.10
22430;DHT22;11382;48.086;11.632;2023-02-15T11:03:54;19.30;72.60
22430;DHT22;11382;48.086;11.632;2023-02-15T11:06:26;18.50;75.70
22430;DHT22;11382;48.086;11.632;2023-02-15T11:08:59;20.10;74.40
22430;DHT22;11382;48.086;11.632;2023-02-15T11:11:32;19.80;71.20
22430;DHT22;11382;48.086;11.632;2023-02-15T11:14:03;20.00;70.90
22430;DHT22;11382;48.086;11.632;2023-02-15T11:16:37;19.50;71.60
22430;DHT22;11382;48.086;11.632;2023-02-15T11:19:08;18.70;74.50
22430;DHT22;11382;48.086;11.632;2023-02-15T11:21:42;18.60;75.00
22430;DHT22;11382;48.086;11.632;2023-02-15T11:24:12;17.50;76.30
22430;DHT22;11382;48.086;11.632;2023-02-15T11:26:43;17.00;78.50
22430;DHT22;11382;48.086;11.632;2023-02-15T11:29:15;17.70;79.30
22430;DHT22;11382;48.086;11.632;2023-02-15T11:31:51;17.70;78.90
22430;DHT22;11382;48.086;11.632;2023-02-15T11:34:26;18.40;78.10
22430;DHT22;11382;48.086;11.632;2023-02-15T11:36:58;18.20;76.50
22430;DHT22;11382;48.086;11.632;2023-02-15T11:39:27;17.70;76.80
22430;DHT22;11382;48.086;11.632;2023-02-15T11:42:03;19.00;76.10
22430;DHT22;11382;48.086;11.632;2023-02-15T11:44:34;19.30;74.00
22430;DHT22;11382;48.086;11.632;2023-02-15T11:47:09;18.70;74.30
22430;DHT22;11382;48.086;11.632;2023-02-15T11:49:38;17.40;75.60
22430;DHT22;11382;48.086;11.632;2023-02-15T11:52:11;19.10;75.40
22430;DHT22;11382;48.086;11.632;2023-02-15T11:54:42;19.00;73.60
22430;DHT22;11382;48.086;11.632;2023-02-15T11:57:14;19.60;73.30
22430;DHT22;11382;48.086;11.632;2023-02-15T11:59:46;20.30;71.00
22430;DHT22;11382;48.086;11.632;2023-02-15T12:02:18;19.80;72.30
22430;DHT22;11382;48.086;11.632;2023-02-15T12:04:51;19.40;72.90
22430;DHT22;11382;48.086;11.632;2023-02-15T12:07:21;19.90;72.40
22430;DHT22;11382;48.086;11.632;2023-02-15T12:09:58;20.10;71.10
22430;DHT22;11382;48.086;11.632;2023-02-15T12:12:29;19.60;71.10
22430;DHT22;11382;48.086;11.632;2023-02-15T12:14:58;18.70;72.80
22430;DHT22;11382;48.086;11.632;2023-02-15T12:17:30;19.20;73.60
22430;DHT22;11382;48.086;11.632;2023-02-15T12:20:03;19.30;73.80
22430;DHT22;11382;48.086;11.632;2023-02-15T12:22:33;16.50;76.50
22430;DHT22;11382;48.086;11.632;2023-02-15T12:25:19;16.70;77.90
22430;DHT22;11382;48.086;11.632;2023-02-15T12:27:48;16.30;78.10
22430;DHT22;11382;48.086;11.632;2023-02-15T12:30:21;15.60;79.60
22430;DHT22;11382;48.086;11.632;2023-02-15T12:32:54;14.70;82.20
22430;DHT22;11382;48.086;11.632;2023-02-15T12:35:28;13.30;87.00
22430;DHT22;11382;48.086;11.632;2023-02-15T12:38:02;13.70;88.10
22430;DHT22;11382;48.086;11.632;2023-02-15T12:40:32;13.80;87.50
22430;DHT22;11382;48.086;11.632;2023-02-15T12:43:04;13.20;89.10
22430;DHT22;11382;48.086;11.632;2023-02-15T12:45:38;12.40;90.90
22430;DHT22;11382;48.086;11.632;2023-02-15T12:48:14;12.40;92.50
22430;DHT22;11382;48.086;11.632;2023-02-15T12:50:44;12.10;93.60
22430;DHT22;11382;48.086;11.632;2023-02-15T12:53:18;11.80;94.20
22430;DHT22;11382;48.086;11.632;2023-02-15T12:55:51;11.80;94.60
22430;DHT22;11382;48.086;11.632;2023-02-15T12:58:21;11.70;95.80
22430;DHT22;11382;48.086;11.632;2023-02-15T13:01:18;11.90;95.70
22430;DHT22;11382;48.086;11.632;2023-02-15T13:03:57;11.50;96.10
22430;DHT22;11382;48.086;11.632;2023-02-15T13:06:27;11.30;97.80
22430;DHT22;11382;48.086;11.632;2023-02-15T13:08:57;11.90;98.40
22430;DHT22;11382;48.086;11.632;2023-02-15T13:11:28;11.70;97.90
22430;DHT22;11382;48.086;11.632;2023-02-15T13:14:01;11.30;99.50
22430;DHT22;11382;48.086;11.632;2023-02-15T13:16:34;11.40;99.90
22430;DHT22;11382;48.086;11.632;2023-02-15T13:19:10;11.00;99.90
22430;DHT22;11382;48.086;11.632;2023-02-15T13:21:43;11.30;99.90
22430;DHT22;11382;48.086;11.632;2023-02-15T13:24:18;11.30;99.90
22430;DHT22;11382;48.086;11.632;2023-02-15T13:26:49;11.30;99.90
22430;DHT22;11382;48.086;11.632;2023-02-15T13:29:21;11.30;99.90
22430;DHT22;11382;48.086;11.632;2023-02-15T13:31:50;11.30;99.90
22430;DHT22;11382;48.086;11.632;2023-02-15T13:34:25;11.30;99.90
22430;DHT22;11382;48.086;11.632;2023-02-15T13:36:54;11.20;99.90
22430;DHT22;11382;48.086;11.632;2023-02-15T13:39:30;11.20;99.90
22430;DHT22;11382;48.086;11.632;2023-02-15T13:42:11;11.70;99.90
22430;DHT22;11382;48.086;11.632;2023-02-15T13:47:45;12.30;99.90
22430;DHT22;11382;48.086;11.632;2023-02-15T13:50:28;12.00;99.90
22430;DHT22;11382;48.086;11.632;2023-02-15T13:53:13;11.90;99.90
22430;DHT22;11382;48.086;11.632;2023-02-15T13:55:47;11.40;99.90
22430;DHT22;11382;48.086;11.632;2023-02-15T13:58:36;11.30;99.90
22430;DHT22;11382;48.086;11.632;2023-02-15T14:01:11;11.20;99.90
22430;DHT22;11382;48.086;11.632;2023-02-15T14:04:10;10.90;99.90
22430;DHT22;11382;48.086;11.632;2023-02-15T14:06:49;10.90;99.90
22430;DHT22;11382;48.086;11.632;2023-02-15T14:09:30;10.70;99.90
22430;DHT22;11382;48.086;11.632;2023-02-15T14:12:14;11.00;99.90
22430;DHT22;11382;48.086;11.632;2023-02-15T14:15:02;11.20;99.90
22430;DHT22;11382;48.086;11.632;2023-02-15T14:17:43;11.20;99.90
22430;DHT22;11382;48.086;11.632;2023-02-15T14:20:20;11.20;99.90
22430;DHT22;11382;48.086;11.632;2023-02-15T14:22:59;11.50;99.90
22430;DHT22;11382;48.086;11.632;2023-02-15T14:25:33;11.60;99.90
22430;DHT22;11382;48.086;11.632;2023-02-15T14:28:07;11.50;99.90
22430;DHT22;11382;48.086;11.632;2023-02-15T14:30:39;11.30;99.90
22430;DHT22;11382;48.086;11.632;2023-02-15T14:33:19;11.20;99.90
22430;DHT22;11382;48.086;11.632;2023-02-15T14:35:51;11.20;99.90
22430;DHT22;11382;48.086;11.632;2023-02-15T14:38:26;11.00;99.90
22430;DHT22;11382;48.086;11.632;2023-02-15T14:41:03;11.00;99.90
22430;DHT22;11382;48.086;11.632;2023-02-15T14:43:41;10.80;99.90
22430;DHT22;11382;48.086;11.632;2023-02-15T14:46:23;10.30;99.90
22430;DHT22;11382;48.086;11.632;2023-02-15T14:48:55;10.30;99.90
22430;DHT22;11382;48.086;11.632;2023-02-15T14:51:54;10.00;99.90
22430;DHT22;11382;48.086;11.632;2023-02-15T14:54:59;9.80;99.90
22430;DHT22;11382;48.086;11.632;2023-02-15T14:57:31;10.10;99.90
22430;DHT22;11382;48.086;11.632;2023-02-15T15:00:31;10.20;99.90
22430;DHT22;11382;48.086;11.632;2023-02-15T15:03:01;10.20;99.90
22430;DHT22;11382;48.086;11.632;2023-02-15T15:05:33;9.60;99.90
22430;DHT22;11382;48.086;11.632;2023-02-15T15:08:03;9.40;99.90
22430;DHT22;11382;48.086;11.632;2023-02-15T15:10:39;9.30;99.90
22430;DHT22;11382;48.086;11.632;2023-02-15T15:13:38;9.30;99.90
22430;DHT22;11382;48.086;11.632;2023-02-15T15:16:24;9.60;99.90
22430;DHT22;11382;48.086;11.632;2023-02-15T15:18:53;9.70;99.90
22430;DHT22;11382;48.086;11.632;2023-02-15T15:21:55;9.70;99.90
22430;DHT22;11382;48.086;11.632;2023-02-15T15:24:49;9.40;99.90
22430;DHT22;11382;48.086;11.632;2023-02-15T15:27:53;9.20;99.90
22430;DHT22;11382;48.086;11.632;2023-02-15T15:30:47;9.30;99.90
22430;DHT22;11382;48.086;11.632;2023-02-15T15:39:43;8.60;99.90
22430;DHT22;11382;48.086;11.632;2023-02-15T15:42:30;8.40;99.90
22430;DHT22;11382;48.086;11.632;2023-02-15T15:45:25;8.70;99.90
22430;DHT22;11382;48.086;11.632;2023-02-15T15:48:05;8.70;99.90
22430;DHT22;11382;48.086;11.632;2023-02-15T15:50:41;8.70;99.90
22430;DHT22;11382;48.086;11.632;2023-02-15T15:53:20;8.50;99.90
22430;DHT22;11382;48.086;11.632;2023-02-15T15:55:52;8.30;99.90
22430;DHT22;11382;48.086;11.632;2023-02-15T15:58:24;8.20;99.90
22430;DHT22;11382;48.086;11.632;2023-02-15T16:00:56;8.00;99.90
22430;DHT22;11382;48.086;11.632;2023-02-15T16:03:27;7.80;99.90
22430;DHT22;11382;48.086;11.632;2023-02-15T16:05:56;7.60;99.90
22430;DHT22;11382;48.086;11.632;2023-02-15T16:08:30;7.50;99.90
22430;DHT22;11382;48.086;11.632;2023-02-15T16:11:00;7.40;99.90
22430;DHT22;11382;48.086;11.632;2023-02-15T16:13:29;7.40;99.90